Terminal Aerodrome Forecast
Issued by NWS

Home | Current Version | Previous Version | Text Only | Print | Product List | Glossary On
Versions: 1 2 3 4 5 6 7 8 9 10 11 12 13 14 15 16
290
FTUS43 KLSX 231122
TAFSUS
TAF
KSUS 231122Z 2312/2412 12007KT P6SM VCSH OVC050
      TEMPO 2312/2313 6SM -TSRA OVC045CB
     FM231700 13008KT P6SM OVC040
     FM232100 14012KT P6SM BKN250
     FM240300 16013KT P6SM SCT250 WS014/19045KT=

USA.gov is the U.S. government's official web portal to all federal, state and local government web resources and services.